Página principal
METAR-TAF:

METAR-TAF

Aeroportos :

Cidade de Ho Chi Minh, Vietname

Aeroporto Internacional Tan Son Nhat

latitude: 10-49N, longitude: 106-40E, altura: 19 m

Observação actual do tempo

O boletim foi feito há 41 minutos, às 11:30 UTC
Vento 8 kt de sul
Temperatura 28°C
Humidade 89%
Pressão 1010 hPa
Visibilidade: 8000 m
Nuvens dispersasa uma altura de 1700 ft
Nuvens dispersasa uma altura de 5000 ft

METAR: VVTS 121130Z 17008KT 8000 SCT017 SCT050 28/26 Q1010 NOSIG

Hora: 19:11 (12:11 UTC)

Previsão

O boletim foi feito há 1 hora e 11 minutos, às 11:00 UTC
Previsão válida de 12 às 12 UTC a 13 às 18 UTC
Vento 9 kt de sul
Visibilidade 10 km ou mais
Nuvens dispersasa uma altura de 1700 ft

TAF: VVTS 121100Z 1212/1318 17009KT 9999 SCT017

Observações e previsões do tempo de mais de 4000 aeroportos (mensagens METAR e TAF).

As estações disponíveis são os pontos amarelos e vermelhos sobre o mapa.

Mova o rato sobre o mapa para ver o nome da estação.

Depois clique no ponto para visualizar as observações e previsões meteorológicas.

Para alterar o mapa : clique nos botões verdes com uma cruz preta para aumentar o zoom; no botão verde com uma pitada de zoom; ou nas setas verdes para mapas adjacentes.


METAR-TAF: